Time;durP1;ratioP1;P1;durP2;ratioP2;P2;SDS_P1;SDS_P2;PMS_P1;PMS_P2;Temp;Humidity;BMP_temperature;BMP_pressure;BME280_temperature;BME280_humidity;BME280_pressure;Samples;Min_cycle;Max_cycle;Signal;HPM_P1;HPM_P2
2023/05/14 03:18:30;;;;;;;9.57;5.57;;;13.50;93.40;;;;;;6218607;22;89682;-71
2023/05/14 03:20:56;;;;;;;9.32;4.93;;;13.40;93.60;;;;;;6248861;22;88236;-73
2023/05/14 03:23:21;;;;;;;9.07;5.03;;;13.40;93.70;;;;;;6249009;22;88304;-74
2023/05/14 03:25:47;;;;;;;8.20;5.13;;;13.40;94.00;;;;;;6250279;22;87281;-72
2023/05/14 03:28:12;;;;;;;8.40;5.50;;;13.40;93.90;;;;;;6248577;22;88242;-72
2023/05/14 03:30:38;;;;;;;8.60;5.10;;;13.40;93.80;;;;;;6248862;22;87754;-73
2023/05/14 03:33:04;;;;;;;7.72;4.90;;;13.40;93.80;;;;;;6249501;22;86974;-73
2023/05/14 03:35:30;;;;;;;7.82;5.35;;;13.40;93.60;;;;;;6249650;22;87532;-73
2023/05/14 03:37:58;;;;;;;8.18;4.90;;;13.40;93.60;;;;;;6248647;22;87950;-72
2023/05/14 03:40:24;;;;;;;7.13;5.18;;;13.40;93.70;;;;;;6249134;22;88749;-72
2023/05/14 03:42:49;;;;;;;8.80;5.25;;;13.40;93.80;;;;;;6248861;22;87455;-72
2023/05/14 03:45:15;;;;;;;7.70;5.05;;;13.50;93.80;;;;;;6249697;22;87324;-73
2023/05/14 03:47:41;;;;;;;6.60;4.75;;;13.50;93.60;;;;;;6247672;22;90245;-71
2023/05/14 03:50:07;;;;;;;7.70;5.25;;;13.50;93.50;;;;;;6248403;22;88601;-71
2023/05/14 03:52:33;;;;;;;8.02;5.53;;;13.50;93.50;;;;;;6249894;22;87062;-72
2023/05/14 03:54:58;;;;;;;8.43;6.03;;;13.50;93.60;;;;;;6249334;22;88354;-71
2023/05/14 03:57:24;;;;;;;9.35;5.13;;;13.50;93.60;;;;;;6247531;22;88195;-72
2023/05/14 03:59:50;;;;;;;8.30;5.32;;;13.50;93.80;;;;;;6249314;22;87327;-71
2023/05/14 04:02:15;;;;;;;8.35;5.70;;;13.60;93.90;;;;;;6246088;22;88052;-72
2023/05/14 04:04:41;;;;;;;6.82;5.00;;;13.50;94.00;;;;;;6249596;22;86512;-72
2023/05/14 04:07:07;;;;;;;8.93;6.30;;;13.50;94.30;;;;;;6248856;22;87866;-71
2023/05/14 04:09:33;;;;;;;7.20;5.20;;;13.50;94.30;;;;;;6248991;22;88249;-71
2023/05/14 04:11:59;;;;;;;6.65;4.85;;;13.50;94.50;;;;;;6248155;22;88424;-73
2023/05/14 04:14:24;;;;;;;8.00;5.70;;;13.50;94.40;;;;;;6249407;22;87461;-72
2023/05/14 04:16:50;;;;;;;7.78;5.35;;;13.50;94.40;;;;;;6247126;22;87689;-72
2023/05/14 04:19:16;;;;;;;8.10;5.20;;;13.60;94.20;;;;;;6248649;22;87860;-72
2023/05/14 04:21:41;;;;;;;9.82;5.88;;;13.70;94.20;;;;;;6248153;22;87303;-72
2023/05/14 04:24:07;;;;;;;7.50;5.45;;;13.70;94.10;;;;;;6249375;22;87468;-72
2023/05/14 04:26:33;;;;;;;7.35;4.93;;;13.70;94.10;;;;;;6249214;22;88208;-72
2023/05/14 04:29:01;;;;;;;7.10;4.97;;;13.70;94.30;;;;;;6249479;22;87851;-72
2023/05/14 04:31:27;;;;;;;7.53;4.72;;;13.80;94.40;;;;;;6249300;22;87300;-71
2023/05/14 04:33:53;;;;;;;9.23;5.47;;;13.80;94.30;;;;;;6250160;22;87459;-71
2023/05/14 04:36:19;;;;;;;10.73;5.15;;;14.00;94.30;;;;;;6248696;22;88265;-71
2023/05/14 04:38:45;;;;;;;8.13;5.38;;;14.00;94.30;;;;;;6248868;22;89086;-73
2023/05/14 04:41:11;;;;;;;8.65;5.68;;;14.10;94.20;;;;;;6248099;22;87482;-71
2023/05/14 04:43:36;;;;;;;8.73;5.40;;;14.10;94.10;;;;;;6248891;22;87354;-71
2023/05/14 04:46:02;;;;;;;9.02;5.47;;;14.20;94.10;;;;;;6248089;22;89348;-71
2023/05/14 04:48:27;;;;;;;10.13;6.10;;;14.20;94.00;;;;;;6248628;22;88497;-73
2023/05/14 04:50:53;;;;;;;10.32;5.82;;;14.20;93.90;;;;;;6249696;22;87311;-71
2023/05/14 04:53:19;;;;;;;14.55;7.68;;;14.20;93.70;;;;;;6249998;22;86435;-71
2023/05/14 04:55:44;;;;;;;13.88;7.75;;;14.10;93.60;;;;;;6249414;22;88227;-71
2023/05/14 04:58:10;;;;;;;8.57;5.50;;;14.10;93.60;;;;;;6249161;22;87848;-72
2023/05/14 05:00:36;;;;;;;5.90;4.10;;;14.10;93.50;;;;;;6248253;22;88224;-71
2023/05/14 05:03:02;;;;;;;7.50;5.00;;;14.10;93.50;;;;;;6248818;22;87498;-72
2023/05/14 05:05:27;;;;;;;6.00;4.13;;;14.10;93.30;;;;;;6247886;22;87467;-73
2023/05/14 05:07:53;;;;;;;7.03;4.20;;;14.10;93.30;;;;;;6247800;22;88135;-74
2023/05/14 05:10:19;;;;;;;10.18;4.57;;;14.10;93.10;;;;;;6248381;22;87304;-73
2023/05/14 05:12:44;;;;;;;6.95;4.30;;;14.20;93.30;;;;;;6248071;22;87027;-73
2023/05/14 05:15:10;;;;;;;10.65;4.95;;;14.40;93.20;;;;;;6248151;22;88527;-72
2023/05/14 05:17:36;;;;;;;6.35;4.43;;;14.50;92.30;;;;;;6247642;22;87726;-73
2023/05/14 05:20:04;;;;;;;6.50;4.40;;;14.60;92.50;;;;;;6247549;22;87330;-73
2023/05/14 05:22:30;;;;;;;6.93;4.72;;;14.80;92.00;;;;;;6249051;22;87157;-73
2023/05/14 05:24:56;;;;;;;7.28;4.93;;;14.80;92.40;;;;;;6246568;22;89558;-72
2023/05/14 05:27:21;;;;;;;6.93;4.60;;;15.00;92.40;;;;;;6246079;22;89151;-71
2023/05/14 05:29:47;;;;;;;9.75;4.78;;;15.10;92.10;;;;;;6248058;22;87375;-72
2023/05/14 05:32:13;;;;;;;5.75;4.30;;;15.10;91.70;;;;;;6248030;22;87017;-71
2023/05/14 05:34:38;;;;;;;9.25;5.20;;;15.10;91.40;;;;;;6247403;22;87636;-70
2023/05/14 05:37:04;;;;;;;6.55;4.60;;;15.10;91.30;;;;;;6247360;22;87942;-72
2023/05/14 05:39:33;;;;;;;6.82;4.60;;;15.10;91.40;;;;;;6246671;22;86949;-72
2023/05/14 05:42:01;;;;;;;7.53;4.55;;;15.10;91.40;;;;;;6248014;22;86682;-71
2023/05/14 05:44:26;;;;;;;6.65;4.68;;;15.10;91.60;;;;;;6246285;22;88143;-70
2023/05/14 05:46:54;;;;;;;8.25;4.82;;;15.10;91.30;;;;;;6248560;22;88793;-72
2023/05/14 05:49:20;;;;;;;9.20;5.15;;;15.00;90.90;;;;;;6248094;22;88246;-72
2023/05/14 05:51:46;;;;;;;7.03;4.90;;;14.90;91.40;;;;;;6248316;22;87910;-72
2023/05/14 05:54:11;;;;;;;7.60;5.07;;;14.90;91.50;;;;;;6220833;22;90745;-73
2023/05/14 05:56:37;;;;;;;6.25;4.50;;;14.90;91.50;;;;;;6248949;22;87736;-71
2023/05/14 05:59:03;;;;;;;6.75;4.93;;;14.90;91.30;;;;;;6250034;22;87520;-71
2023/05/14 06:01:28;;;;;;;6.82;4.40;;;14.70;91.60;;;;;;6249496;22;87610;-71
2023/05/14 06:03:54;;;;;;;6.80;4.75;;;14.80;91.60;;;;;;6248556;22;87828;-71
2023/05/14 06:06:20;;;;;;;6.75;4.82;;;14.90;91.70;;;;;;6249694;22;87383;-72
2023/05/14 06:08:46;;;;;;;7.45;5.05;;;15.00;91.60;;;;;;6248106;22;87374;-71
2023/05/14 06:11:12;;;;;;;7.80;5.55;;;15.10;91.40;;;;;;6249573;22;87088;-72
2023/05/14 06:13:37;;;;;;;8.10;5.78;;;15.10;91.50;;;;;;6248508;22;89341;-71
2023/05/14 06:16:03;;;;;;;9.27;5.03;;;15.10;91.50;;;;;;6248386;22;88826;-71
2023/05/14 06:18:29;;;;;;;7.50;4.60;;;15.10;91.20;;;;;;6248320;22;87346;-72
2023/05/14 06:20:55;;;;;;;6.95;4.65;;;15.10;91.00;;;;;;6249628;22;87383;-72
2023/05/14 06:23:21;;;;;;;7.60;4.90;;;15.20;90.90;;;;;;6249400;22;87736;-73
2023/05/14 06:25:49;;;;;;;8.60;5.18;;;15.30;91.10;;;;;;6247731;22;87713;-73
2023/05/14 06:28:15;;;;;;;7.50;5.03;;;15.40;90.40;;;;;;6248896;22;87225;-72
2023/05/14 06:30:40;;;;;;;7.05;5.05;;;15.50;90.60;;;;;;6249078;22;86613;-72
2023/05/14 06:33:06;;;;;;;8.40;5.28;;;15.70;90.50;;;;;;6248567;22;88147;-72
2023/05/14 06:35:33;;;;;;;7.65;5.13;;;15.70;90.00;;;;;;6248361;22;88300;-71
2023/05/14 06:37:59;;;;;;;8.13;4.75;;;15.70;89.80;;;;;;6248397;22;87966;-72
2023/05/14 06:40:25;;;;;;;7.60;4.75;;;15.90;90.00;;;;;;6249095;22;86965;-73
2023/05/14 06:42:50;;;;;;;8.32;4.63;;;16.20;88.50;;;;;;6248725;22;88450;-71
2023/05/14 06:45:16;;;;;;;6.22;4.57;;;16.40;88.20;;;;;;6248086;22;87463;-70
2023/05/14 06:47:42;;;;;;;8.07;5.18;;;16.70;86.80;;;;;;6249242;22;87428;-74
2023/05/14 06:50:08;;;;;;;7.18;4.60;;;16.90;86.00;;;;;;6249227;22;87362;-74
2023/05/14 06:52:33;;;;;;;8.48;4.78;;;17.00;85.30;;;;;;6248290;22;88525;-73
2023/05/14 06:54:59;;;;;;;9.02;4.60;;;17.00;85.90;;;;;;6247807;22;87480;-74
2023/05/14 06:57:25;;;;;;;7.82;4.85;;;17.00;84.50;;;;;;6246118;22;87169;-73
2023/05/14 06:59:50;;;;;;;7.75;5.22;;;17.00;84.70;;;;;;6247923;22;87591;-73
2023/05/14 07:02:16;;;;;;;8.07;5.15;;;16.90;84.00;;;;;;6244965;22;88239;-74
2023/05/14 07:04:42;;;;;;;7.38;4.80;;;16.90;84.00;;;;;;6243476;22;89185;-74
2023/05/14 07:07:09;;;;;;;7.40;4.63;;;16.80;83.70;;;;;;6244492;22;87557;-73
2023/05/14 07:09:35;;;;;;;6.35;4.53;;;16.70;83.70;;;;;;6247228;22;87444;-73
2023/05/14 07:12:00;;;;;;;7.07;4.82;;;16.50;83.90;;;;;;6245384;22;88588;-73
2023/05/14 07:14:26;;;;;;;7.88;4.75;;;16.40;84.80;;;;;;6242841;22;88093;-73
2023/05/14 07:16:51;;;;;;;9.23;5.65;;;16.20;84.90;;;;;;6246183;22;88742;-73
2023/05/14 07:19:17;;;;;;;6.97;4.93;;;16.10;85.50;;;;;;6247830;22;86636;-73
2023/05/14 07:21:43;;;;;;;7.40;5.20;;;16.00;86.30;;;;;;6247118;22;87503;-74
2023/05/14 07:24:08;;;;;;;7.25;5.13;;;16.00;86.90;;;;;;6246187;22;88149;-73
2023/05/14 07:26:34;;;;;;;9.20;5.13;;;15.90;86.90;;;;;;6219483;22;88240;-73
2023/05/14 07:29:00;;;;;;;7.65;5.63;;;15.90;86.60;;;;;;6247731;22;87053;-73
2023/05/14 07:31:25;;;;;;;8.18;5.72;;;16.00;87.00;;;;;;6245182;22;88241;-73
2023/05/14 07:33:51;;;;;;;8.80;4.90;;;16.10;87.10;;;;;;6245751;22;88186;-73
2023/05/14 07:36:17;;;;;;;8.50;5.13;;;16.20;86.30;;;;;;6246117;22;87527;-73
2023/05/14 07:38:42;;;;;;;6.93;4.75;;;16.20;86.40;;;;;;6246855;22;87309;-74
2023/05/14 07:41:10;;;;;;;8.32;5.07;;;16.40;86.10;;;;;;6244843;22;89584;-74
2023/05/14 07:43:37;;;;;;;7.28;5.28;;;16.50;85.30;;;;;;6247155;22;87293;-73
2023/05/14 07:46:03;;;;;;;9.30;5.00;;;16.50;84.70;;;;;;6246177;22;87363;-74
2023/05/14 07:48:28;;;;;;;9.10;6.32;;;16.50;84.20;;;;;;6245007;22;87037;-74
2023/05/14 07:50:54;;;;;;;9.93;5.97;;;16.40;84.00;;;;;;6246031;22;89352;-73
2023/05/14 07:53:20;;;;;;;8.25;5.32;;;16.40;84.80;;;;;;6247996;22;89090;-74
2023/05/14 07:55:47;;;;;;;8.93;5.50;;;16.30;85.50;;;;;;6248634;22;87449;-73
2023/05/14 07:58:13;;;;;;;6.82;4.65;;;16.20;86.60;;;;;;6248528;22;87616;-73
2023/05/14 08:00:39;;;;;;;8.48;5.05;;;16.30;87.40;;;;;;6246973;22;88572;-75
2023/05/14 08:03:05;;;;;;;7.75;4.95;;;16.30;86.30;;;;;;6246313;22;88105;-74
2023/05/14 08:05:31;;;;;;;7.55;5.60;;;16.40;86.10;;;;;;6248586;22;87368;-73
2023/05/14 08:07:57;;;;;;;7.55;5.22;;;16.40;86.10;;;;;;6249173;22;86781;-72
2023/05/14 08:10:23;;;;;;;7.18;4.53;;;16.30;86.70;;;;;;6248467;22;88558;-73
2023/05/14 08:12:49;;;;;;;7.10;4.45;;;16.30;86.60;;;;;;6248558;22;88733;-71
2023/05/14 08:15:14;;;;;;;7.43;4.80;;;16.30;85.60;;;;;;6249032;22;87851;-71
2023/05/14 08:17:40;;;;;;;8.68;5.38;;;16.30;85.60;;;;;;6249764;22;87303;-72
2023/05/14 08:20:08;;;;;;;7.13;4.07;;;16.30;86.30;;;;;;6247477;22;88400;-70
2023/05/14 08:22:34;;;;;;;6.85;4.32;;;16.40;86.80;;;;;;6247414;22;88395;-72
2023/05/14 08:25:01;;;;;;;7.72;5.38;;;16.60;84.90;;;;;;6249231;22;87261;-72
2023/05/14 08:27:27;;;;;;;6.75;4.85;;;16.70;83.90;;;;;;6246896;22;87429;-73
2023/05/14 08:29:53;;;;;;;8.50;5.13;;;16.80;83.80;;;;;;6247357;22;88099;-73
2023/05/14 08:32:18;;;;;;;6.75;4.78;;;17.00;82.80;;;;;;6245720;22;88530;-72
2023/05/14 08:34:44;;;;;;;8.02;5.03;;;17.20;81.80;;;;;;6243982;22;87819;-72
2023/05/14 08:37:09;;;;;;;8.15;5.40;;;17.40;81.70;;;;;;6247712;22;87032;-76
2023/05/14 08:39:35;;;;;;;7.72;5.10;;;17.70;81.80;;;;;;6246732;22;88231;-74
2023/05/14 08:42:03;;;;;;;6.55;4.78;;;17.80;80.40;;;;;;6246879;22;88713;-71
2023/05/14 08:44:43;;;;;;;7.50;4.70;;;18.00;79.60;;;;;;6247696;22;88218;-74
2023/05/14 08:47:11;;;;;;;6.90;4.70;;;18.40;79.30;;;;;;6246732;22;87101;-74
2023/05/14 08:49:42;;;;;;;6.38;4.30;;;18.70;78.40;;;;;;6244851;22;88030;-73
2023/05/14 08:52:11;;;;;;;8.57;4.57;;;19.10;76.40;;;;;;6246867;22;87887;-73
2023/05/14 08:54:37;;;;;;;7.22;4.78;;;19.20;75.60;;;;;;6245138;22;87560;-73
2023/05/14 08:57:04;;;;;;;6.35;4.47;;;19.50;76.10;;;;;;6247702;22;86726;-71
2023/05/14 08:59:30;;;;;;;6.35;4.28;;;19.60;75.70;;;;;;6244905;22;87741;-70
2023/05/14 09:01:59;;;;;;;6.72;4.53;;;19.70;75.10;;;;;;6247252;22;88510;-73
2023/05/14 09:04:26;;;;;;;7.30;5.28;;;20.20;73.20;;;;;;6247313;22;88175;-73
2023/05/14 09:06:53;;;;;;;6.45;5.32;;;20.90;71.90;;;;;;6247295;22;87178;-73
2023/05/14 09:09:22;;;;;;;6.63;4.82;;;21.60;69.40;;;;;;6247213;22;89035;-72
2023/05/14 09:11:52;;;;;;;6.20;3.92;;;22.30;67.10;;;;;;6247116;22;87775;-73
2023/05/14 09:14:22;;;;;;;5.43;4.55;;;23.60;63.90;;;;;;6238432;22;87492;-72
2023/05/14 09:16:53;;;;;;;5.88;4.53;;;25.00;61.40;;;;;;6240751;22;87286;-70
2023/05/14 09:19:19;;;;;;;5.30;4.20;;;25.70;58.70;;;;;;6244365;22;87581;-71
2023/05/14 09:21:49;;;;;;;5.20;4.15;;;26.00;58.40;;;;;;6244067;22;88380;-72
2023/05/14 09:24:24;;;;;;;7.20;4.10;;;25.70;57.20;;;;;;6244177;22;87435;-72
2023/05/14 09:26:52;;;;;;;7.63;5.30;;;25.70;57.40;;;;;;6245057;22;87191;-71
2023/05/14 09:29:18;;;;;;;6.28;4.00;;;25.30;56.00;;;;;;6242898;22;88949;-72
2023/05/14 09:31:45;;;;;;;4.07;3.33;;;25.30;58.10;;;;;;6242535;22;89419;-73
2023/05/14 09:34:22;;;;;;;3.85;2.65;;;24.80;57.50;;;;;;6243936;22;87713;-71
2023/05/14 09:36:55;;;;;;;3.47;2.53;;;24.60;56.60;;;;;;6214151;22;87851;-72
2023/05/14 09:39:23;;;;;;;5.10;3.00;;;24.10;59.40;;;;;;6215861;22;90082;-72
2023/05/14 09:41:56;;;;;;;4.35;3.28;;;24.00;58.90;;;;;;6215686;22;89975;-72
2023/05/14 09:44:23;;;;;;;4.03;2.88;;;24.00;60.30;;;;;;6241872;22;87671;-72
2023/05/14 09:46:55;;;;;;;3.47;2.47;;;23.40;59.90;;;;;;6245278;22;86494;-72
2023/05/14 09:49:24;;;;;;;4.70;3.30;;;23.30;59.90;;;;;;6243496;22;88726;-71
2023/05/14 09:51:56;;;;;;;2.72;2.13;;;23.20;61.50;;;;;;6215815;22;89820;-72
2023/05/14 09:54:26;;;;;;;2.85;1.63;;;22.90;59.20;;;;;;6211073;22;89294;-71
2023/05/14 09:56:55;;;;;;;4.93;4.07;;;22.60;60.20;;;;;;6216888;22;87573;-71
2023/05/14 09:59:22;;;;;;;3.80;2.60;;;22.10;62.40;;;;;;6216831;22;90114;-71
2023/05/14 10:01:53;;;;;;;5.65;4.30;;;22.10;63.60;;;;;;6216721;22;89779;-72
2023/05/14 10:04:21;;;;;;;5.47;4.35;;;22.10;63.40;;;;;;6214511;22;87737;-72
2023/05/14 10:06:52;;;;;;;5.13;3.50;;;22.00;62.40;;;;;;6244531;22;87571;-73
2023/05/14 10:09:25;;;;;;;6.47;4.55;;;22.00;63.80;;;;;;6217204;22;90420;-72
2023/05/14 10:11:56;;;;;;;6.47;4.32;;;21.90;63.50;;;;;;6243893;22;87061;-71
2023/05/14 10:14:49;;;;;;;6.43;4.40;;;21.80;63.90;;;;;;6216114;22;87535;-71
2023/05/14 10:17:18;;;;;;;7.35;4.70;;;21.40;65.30;;;;;;6240334;22;87339;-71
2023/05/14 10:19:52;;;;;;;6.00;4.57;;;21.20;65.50;;;;;;6246186;22;89029;-71
2023/05/14 10:22:22;;;;;;;7.75;4.80;;;21.20;65.50;;;;;;6246570;22;88919;-70
2023/05/14 10:24:51;;;;;;;6.90;4.93;;;21.00;66.80;;;;;;6247239;22;87368;-70
2023/05/14 10:27:20;;;;;;;7.00;4.75;;;20.80;67.50;;;;;;6246455;22;87647;-72
2023/05/14 10:29:54;;;;;;;7.22;4.65;;;20.90;67.80;;;;;;6245986;22;88255;-72
2023/05/14 10:32:24;;;;;;;9.15;4.85;;;20.60;67.40;;;;;;6246001;22;87534;-72
2023/05/14 10:34:50;;;;;;;8.85;5.47;;;20.50;69.60;;;;;;6245186;22;87346;-73
2023/05/14 10:37:19;;;;;;;5.53;3.88;;;20.40;69.30;;;;;;6246091;22;87080;-72
2023/05/14 10:39:45;;;;;;;8.95;4.32;;;20.40;68.80;;;;;;6248448;22;88158;-72
2023/05/14 10:42:23;;;;;;;9.32;4.72;;;20.30;69.90;;;;;;6246915;22;87982;-71
2023/05/14 10:44:57;;;;;;;8.35;4.68;;;20.50;70.10;;;;;;6245809;22;88406;-71
2023/05/14 10:47:25;;;;;;;7.05;5.13;;;20.60;71.00;;;;;;6247011;22;87710;-71
2023/05/14 10:49:54;;;;;;;7.22;4.18;;;20.80;69.90;;;;;;6247022;22;88441;-72
2023/05/14 10:52:20;;;;;;;5.93;3.78;;;20.90;68.70;;;;;;6248178;22;87406;-72
2023/05/14 10:54:53;;;;;;;6.05;3.63;;;20.80;69.20;;;;;;6247837;22;87224;-72
2023/05/14 10:57:20;;;;;;;7.10;4.10;;;20.80;69.20;;;;;;6219766;22;87510;-72
2023/05/14 10:59:47;;;;;;;5.97;4.35;;;20.80;69.50;;;;;;6246604;22;88504;-72
2023/05/14 11:02:22;;;;;;;5.80;3.50;;;20.70;70.00;;;;;;6247900;22;88154;-72
2023/05/14 11:04:53;;;;;;;7.50;3.92;;;20.30;71.00;;;;;;6248328;22;87427;-71
2023/05/14 11:07:23;;;;;;;6.40;4.20;;;20.10;72.10;;;;;;6247957;22;87266;-73
2023/05/14 11:09:51;;;;;;;8.48;5.40;;;19.80;71.90;;;;;;6246971;22;89233;-72
2023/05/14 11:12:17;;;;;;;7.93;4.65;;;19.50;73.20;;;;;;6245488;22;89754;-72
2023/05/14 11:14:43;;;;;;;7.82;4.50;;;19.50;73.90;;;;;;6247800;22;87345;-71
2023/05/14 11:17:09;;;;;;;8.40;4.82;;;19.40;74.60;;;;;;6246012;22;87443;-71
2023/05/14 11:19:35;;;;;;;7.65;5.10;;;19.00;74.40;;;;;;6247735;22;87486;-72
2023/05/14 11:22:00;;;;;;;9.80;5.60;;;18.60;76.00;;;;;;6247717;22;87249;-71
2023/05/14 11:24:26;;;;;;;7.90;5.57;;;18.30;77.90;;;;;;6248882;22;87523;-71
2023/05/14 11:26:54;;;;;;;8.57;5.22;;;18.20;78.00;;;;;;6249628;22;86627;-71
2023/05/14 11:29:20;;;;;;;10.23;5.43;;;17.90;79.90;;;;;;6247978;22;88685;-72
2023/05/14 11:31:46;;;;;;;11.70;5.78;;;17.60;80.50;;;;;;6246115;22;87996;-72
2023/05/14 11:34:12;;;;;;;12.50;6.30;;;17.50;82.40;;;;;;6244640;22;88232;-71
2023/05/14 11:36:37;;;;;;;10.80;6.82;;;17.40;82.90;;;;;;6246285;22;87572;-71
2023/05/14 11:39:03;;;;;;;10.30;6.03;;;17.30;82.50;;;;;;6246309;22;87693;-72
2023/05/14 11:41:30;;;;;;;9.18;6.13;;;17.10;83.20;;;;;;6245663;22;88898;-71
2023/05/14 11:43:56;;;;;;;9.68;6.88;;;16.90;83.60;;;;;;6247338;22;87288;-71
2023/05/14 11:46:23;;;;;;;9.55;5.72;;;16.70;84.70;;;;;;6246190;22;87294;-72
2023/05/14 11:48:48;;;;;;;11.40;6.00;;;16.50;85.20;;;;;;6244839;22;88326;-71
2023/05/14 11:51:14;;;;;;;8.52;5.43;;;16.60;86.00;;;;;;6243963;22;86839;-71
2023/05/14 11:53:40;;;;;;;12.13;6.05;;;16.70;85.70;;;;;;6246697;22;87653;-71
2023/05/14 11:56:06;;;;;;;10.75;6.35;;;16.80;85.80;;;;;;6245886;22;87352;-71
2023/05/14 11:58:32;;;;;;;8.43;5.65;;;16.70;85.90;;;;;;6245287;22;89265;-71
2023/05/14 12:00:58;;;;;;;11.90;6.53;;;16.60;84.40;;;;;;6247890;22;88415;-72
2023/05/14 12:03:25;;;;;;;9.10;5.47;;;16.50;86.60;;;;;;6246869;22;87730;-71
2023/05/14 12:05:58;;;;;;;9.98;5.78;;;16.30;86.90;;;;;;6245868;22;87782;-71
2023/05/14 12:08:30;;;;;;;12.57;6.05;;;16.30;87.40;;;;;;6245278;22;88433;-72
2023/05/14 12:10:58;;;;;;;9.07;5.50;;;16.30;87.70;;;;;;6220317;22;88464;-72
2023/05/14 12:13:26;;;;;;;11.48;5.85;;;16.40;87.20;;;;;;6247986;22;87461;-72
2023/05/14 12:15:58;;;;;;;9.57;5.88;;;16.50;87.60;;;;;;6245832;22;86519;-72
2023/05/14 12:18:24;;;;;;;9.60;5.60;;;16.70;87.90;;;;;;6245466;22;88298;-71
2023/05/14 12:20:50;;;;;;;11.20;5.68;;;16.90;86.90;;;;;;6246022;22;87382;-72
2023/05/14 12:23:24;;;;;;;9.80;6.00;;;17.00;86.20;;;;;;6244503;22;88221;-72
2023/05/14 12:25:50;;;;;;;8.60;5.00;;;17.00;85.90;;;;;;6245739;22;87499;-72
2023/05/14 12:28:16;;;;;;;11.32;5.75;;;17.20;85.90;;;;;;6245324;22;88552;-72
2023/05/14 12:30:42;;;;;;;9.77;5.93;;;17.50;85.80;;;;;;6245725;22;87994;-73
2023/05/14 12:33:08;;;;;;;10.85;5.97;;;17.80;84.30;;;;;;6247718;22;87608;-72
2023/05/14 12:35:37;;;;;;;10.98;6.70;;;17.90;84.00;;;;;;6246216;22;87388;-72
2023/05/14 12:38:03;;;;;;;11.25;6.85;;;18.00;83.00;;;;;;6220548;22;87576;-72
2023/05/14 12:40:29;;;;;;;10.93;7.20;;;17.90;82.50;;;;;;6247686;22;87918;-72
2023/05/14 12:42:55;;;;;;;12.15;7.28;;;17.60;83.00;;;;;;6247912;22;87570;-72
2023/05/14 12:45:21;;;;;;;11.00;5.65;;;17.40;83.20;;;;;;6247277;22;87420;-71
2023/05/14 12:47:46;;;;;;;11.20;5.80;;;17.20;84.00;;;;;;6245592;22;89056;-71
2023/05/14 12:50:12;;;;;;;9.27;5.03;;;16.80;85.00;;;;;;6245356;22;89135;-71
2023/05/14 12:52:38;;;;;;;9.05;5.15;;;16.80;84.40;;;;;;6220678;22;87498;-72
2023/05/14 12:55:05;;;;;;;8.05;5.32;;;16.90;83.80;;;;;;6245706;22;87455;-72
2023/05/14 12:57:31;;;;;;;8.48;5.35;;;16.90;84.10;;;;;;6245859;22;88535;-72
2023/05/14 12:59:57;;;;;;;11.50;5.60;;;17.10;86.70;;;;;;6246756;22;87076;-71
2023/05/14 13:02:22;;;;;;;11.52;5.70;;;17.30;84.70;;;;;;6247461;22;87209;-71
2023/05/14 13:04:48;;;;;;;9.18;5.43;;;17.40;84.00;;;;;;6248448;22;86574;-72
2023/05/14 13:07:14;;;;;;;10.38;5.40;;;17.50;83.30;;;;;;6244386;22;87630;-71
2023/05/14 13:09:40;;;;;;;11.05;5.70;;;17.50;82.50;;;;;;6245810;22;88392;-72
2023/05/14 13:12:06;;;;;;;8.20;4.80;;;17.40;83.30;;;;;;6244181;22;88526;-71
2023/05/14 13:14:31;;;;;;;11.18;5.50;;;17.10;84.00;;;;;;6247969;22;87313;-70
2023/05/14 13:16:57;;;;;;;9.55;5.95;;;16.90;84.40;;;;;;6245042;22;88454;-70
2023/05/14 13:19:23;;;;;;;10.45;5.35;;;16.60;85.60;;;;;;6249578;22;88164;-71
2023/05/14 13:21:48;;;;;;;7.70;5.03;;;16.30;86.60;;;;;;6249422;22;87737;-73
2023/05/14 13:24:15;;;;;;;8.60;4.90;;;16.10;89.70;;;;;;6250441;22;87121;-74
2023/05/14 13:26:43;;;;;;;11.50;5.40;;;16.00;89.00;;;;;;6248517;22;88575;-72
2023/05/14 13:29:09;;;;;;;20.70;5.53;;;16.00;90.30;;;;;;6249146;22;87331;-71
2023/05/14 13:31:34;;;;;;;10.32;4.30;;;16.00;90.60;;;;;;6246026;22;87605;-71
2023/05/14 13:34:01;;;;;;;11.45;4.97;;;16.20;91.20;;;;;;6246623;22;87793;-71
2023/05/14 13:36:27;;;;;;;10.52;5.35;;;16.20;89.70;;;;;;6245751;22;89966;-74
2023/05/14 13:38:52;;;;;;;10.93;5.47;;;16.20;90.20;;;;;;6248591;22;88958;-75
2023/05/14 13:41:18;;;;;;;8.55;3.03;;;16.30;92.20;;;;;;6219714;22;87656;-67
2023/05/14 13:43:44;;;;;;;8.65;4.93;;;16.80;95.30;;;;;;6247008;22;87055;-71
2023/05/14 13:46:09;;;;;;;10.27;5.32;;;17.00;91.50;;;;;;6247432;22;89981;-68
2023/05/14 13:48:36;;;;;;;8.68;5.45;;;17.20;90.80;;;;;;6247428;22;87832;-70
2023/05/14 13:51:02;;;;;;;12.48;6.75;;;17.10;90.20;;;;;;6248893;22;87330;-67
2023/05/14 13:53:27;;;;;;;11.70;7.05;;;17.00;90.50;;;;;;6250466;22;86447;-68
2023/05/14 13:55:57;;;;;;;11.88;6.43;;;16.80;90.20;;;;;;6249407;22;87612;-69
2023/05/14 13:58:24;;;;;;;13.02;5.90;;;16.80;90.90;;;;;;6248859;22;87917;-71
2023/05/14 14:00:50;;;;;;;12.60;5.85;;;16.80;90.60;;;;;;6248639;22;88369;-73
2023/05/14 14:03:16;;;;;;;10.65;5.63;;;17.10;90.90;;;;;;6248272;22;88188;-74
2023/05/14 14:05:42;;;;;;;9.85;2.88;;;17.50;89.00;;;;;;6245487;22;88162;-71
2023/05/14 14:08:07;;;;;;;13.98;5.95;;;18.00;91.60;;;;;;6245222;22;87361;-74
2023/05/14 14:10:33;;;;;;;9.95;5.13;;;18.30;85.20;;;;;;6247242;22;87446;-71
2023/05/14 14:12:59;;;;;;;9.20;5.53;;;18.30;88.40;;;;;;6247647;22;87233;-72
2023/05/14 14:15:24;;;;;;;12.40;5.43;;;18.50;84.80;;;;;;6247639;22;88093;-73
2023/05/14 14:17:50;;;;;;;10.93;6.20;;;18.40;86.80;;;;;;6246933;22;88412;-69
2023/05/14 14:20:16;;;;;;;10.63;6.32;;;18.40;84.80;;;;;;6245922;22;87169;-72
2023/05/14 14:22:43;;;;;;;9.70;6.35;;;18.40;86.20;;;;;;6248110;22;87517;-72
2023/05/14 14:25:10;;;;;;;7.40;4.88;;;18.40;83.80;;;;;;6220420;22;90886;-73
2023/05/14 14:27:37;;;;;;;9.23;2.97;;;18.60;81.80;;;;;;6247117;22;88345;-72
2023/05/14 14:30:16;;;;;;;7.88;4.82;;;18.90;85.80;;;;;;6222336;22;87193;-72
2023/05/14 14:32:43;;;;;;;8.23;4.80;;;19.10;82.50;;;;;;6248469;22;87265;-70
2023/05/14 14:35:10;;;;;;;9.15;4.07;;;19.10;79.80;;;;;;6246473;22;89023;-73
2023/05/14 14:37:36;;;;;;;8.32;5.18;;;19.00;86.70;;;;;;6241876;22;87565;-70
2023/05/14 14:40:05;;;;;;;8.65;5.03;;;19.10;79.70;;;;;;6247504;22;87549;-72
2023/05/14 14:42:32;;;;;;;7.55;5.03;;;19.00;80.80;;;;;;6249255;22;86460;-72
2023/05/14 14:44:58;;;;;;;9.20;5.18;;;19.00;78.40;;;;;;6247199;22;87720;-73
2023/05/14 14:47:24;;;;;;;6.80;3.65;;;18.90;77.40;;;;;;6247218;22;87368;-71
2023/05/14 14:49:49;;;;;;;8.88;5.18;;;19.20;79.10;;;;;;6245427;22;88235;-71
2023/05/14 14:52:15;;;;;;;9.45;5.32;;;19.60;75.60;;;;;;6249281;22;87545;-73
2023/05/14 14:54:41;;;;;;;11.90;5.97;;;19.50;76.20;;;;;;6247505;22;87909;-70
2023/05/14 14:57:06;;;;;;;8.85;6.00;;;18.90;79.70;;;;;;6249093;22;87965;-72
2023/05/14 14:59:34;;;;;;;10.90;5.60;;;18.60;81.20;;;;;;6217365;22;87577;-72
2023/05/14 15:01:59;;;;;;;9.05;5.10;;;18.40;82.10;;;;;;6249371;22;87088;-73
2023/05/14 15:04:25;;;;;;;7.65;4.95;;;18.20;80.00;;;;;;6248522;22;87385;-73
2023/05/14 15:06:51;;;;;;;8.27;5.20;;;17.90;82.20;;;;;;6248583;22;88316;-72
2023/05/14 15:09:16;;;;;;;9.98;4.95;;;17.80;84.30;;;;;;6248152;22;87464;-69
2023/05/14 15:11:43;;;;;;;8.07;4.70;;;17.70;84.90;;;;;;6248049;22;87442;-68
2023/05/14 15:14:09;;;;;;;13.10;4.22;;;17.60;86.20;;;;;;6246995;22;88693;-72
2023/05/14 15:16:34;;;;;;;5.88;3.65;;;17.60;87.10;;;;;;6247930;22;87554;-71
2023/05/14 15:19:00;;;;;;;6.90;3.53;;;17.80;85.40;;;;;;6247606;22;87525;-72
2023/05/14 15:21:26;;;;;;;6.90;3.35;;;17.80;85.70;;;;;;6248638;22;87441;-71
2023/05/14 15:23:51;;;;;;;7.35;3.65;;;18.00;88.30;;;;;;6247793;22;88901;-71
2023/05/14 15:26:17;;;;;;;8.90;5.00;;;18.20;84.70;;;;;;6246000;22;87405;-72
2023/05/14 15:28:43;;;;;;;8.27;4.35;;;18.30;84.30;;;;;;6248750;22;87069;-70
2023/05/14 15:31:08;;;;;;;8.95;4.57;;;18.30;84.30;;;;;;6245491;22;86839;-72
2023/05/14 15:33:35;;;;;;;7.72;4.57;;;18.30;83.80;;;;;;6247766;22;87724;-69
2023/05/14 15:36:00;;;;;;;8.52;4.20;;;18.20;84.60;;;;;;6248590;22;87394;-71
2023/05/14 15:38:26;;;;;;;9.02;4.65;;;18.10;83.80;;;;;;6248095;22;88213;-70
2023/05/14 15:40:52;;;;;;;11.52;5.35;;;18.00;84.00;;;;;;6246660;22;87329;-70
2023/05/14 15:43:18;;;;;;;8.95;5.18;;;18.10;85.40;;;;;;6247876;22;87955;-69
2023/05/14 15:45:48;;;;;;;7.20;4.53;;;18.10;86.60;;;;;;6247013;22;88191;-72
2023/05/14 15:48:13;;;;;;;8.02;4.63;;;18.20;82.90;;;;;;6249659;22;87476;-71
2023/05/14 15:50:39;;;;;;;10.07;4.80;;;18.10;82.10;;;;;;6249777;22;87228;-72
2023/05/14 15:53:05;;;;;;;8.27;4.63;;;17.80;84.20;;;;;;6247998;22;88502;-70
2023/05/14 15:55:30;;;;;;;10.48;4.43;;;17.60;84.10;;;;;;6250343;22;87639;-72
2023/05/14 15:57:56;;;;;;;12.85;2.50;;;17.40;87.70;;;;;;6249455;22;87315;-70
2023/05/14 16:00:23;;;;;;;10.25;3.45;;;18.00;90.50;;;;;;6248756;22;87610;-72